Time;durP1;ratioP1;P1;durP2;ratioP2;P2;SDS_P1;SDS_P2;PMS_P1;PMS_P2;Temp;Humidity;BMP_temperature;BMP_pressure;BME280_temperature;BME280_humidity;BME280_pressure;Samples;Min_cycle;Max_cycle;Signal;HPM_P1;HPM_P2
2022/10/30 00:00:39;;;;;;;10.43;3.83;;;18.00;99.90;;;;;;5050531;28;20033;-71
2022/10/30 00:03:05;;;;;;;8.60;3.83;;;18.00;99.90;;;;;;5051206;28;20048;-72
2022/10/30 00:05:31;;;;;;;11.02;3.63;;;18.00;99.90;;;;;;5033367;28;20439;-72
2022/10/30 00:07:57;;;;;;;9.68;3.92;;;18.00;99.90;;;;;;5016152;28;20029;-72
2022/10/30 00:10:24;;;;;;;8.40;4.10;;;18.00;99.90;;;;;;5050148;28;20024;-72
2022/10/30 00:12:50;;;;;;;10.02;3.75;;;17.90;99.90;;;;;;5050557;28;20543;-71
2022/10/30 00:15:17;;;;;;;9.05;3.30;;;17.90;99.90;;;;;;5032698;28;20087;-71
2022/10/30 00:17:42;;;;;;;9.98;4.07;;;17.90;99.90;;;;;;5050201;28;20033;-71
2022/10/30 00:20:09;;;;;;;10.10;4.43;;;17.90;99.90;;;;;;5050240;28;20033;-71
2022/10/30 00:22:35;;;;;;;8.38;4.13;;;17.90;99.90;;;;;;5050380;28;20032;-71
2022/10/30 00:25:03;;;;;;;7.95;3.85;;;17.90;99.90;;;;;;5032515;28;20024;-71
2022/10/30 00:27:29;;;;;;;8.63;3.90;;;17.90;99.90;;;;;;5050105;28;20431;-71
2022/10/30 00:29:55;;;;;;;10.73;4.43;;;17.80;99.90;;;;;;5050145;28;20100;-71
2022/10/30 00:32:22;;;;;;;7.40;3.50;;;17.80;99.90;;;;;;5032412;28;20063;-71
2022/10/30 00:34:49;;;;;;;9.73;4.10;;;17.80;99.90;;;;;;5050279;28;20409;-71
2022/10/30 00:37:15;;;;;;;9.32;3.95;;;17.80;99.90;;;;;;5032316;28;20033;-71
2022/10/30 00:39:41;;;;;;;11.32;3.75;;;17.80;99.90;;;;;;5030446;28;20493;-71
2022/10/30 00:42:15;;;;;;;8.20;3.92;;;17.80;99.90;;;;;;5030707;28;20078;-71
2022/10/30 00:44:46;;;;;;;9.02;4.20;;;17.70;99.90;;;;;;5049732;28;20519;-71
2022/10/30 00:47:19;;;;;;;9.90;3.95;;;17.80;99.90;;;;;;5049840;28;20025;-71
2022/10/30 00:49:54;;;;;;;16.52;5.03;;;17.70;99.90;;;;;;5031357;28;20029;-71
2022/10/30 00:52:23;;;;;;;11.93;4.72;;;17.70;99.90;;;;;;5050161;28;20033;-72
2022/10/30 00:54:51;;;;;;;10.60;4.40;;;17.70;99.90;;;;;;5032732;28;20120;-71
2022/10/30 00:57:18;;;;;;;8.10;3.80;;;17.70;99.90;;;;;;5032584;28;20029;-73
2022/10/30 00:59:45;;;;;;;12.20;4.70;;;17.70;99.90;;;;;;5032438;28;20032;-72
2022/10/30 01:02:11;;;;;;;11.30;4.63;;;17.60;99.90;;;;;;5053673;28;20036;-72
2022/10/30 01:04:40;;;;;;;10.73;3.83;;;17.60;99.90;;;;;;5053674;28;20029;-72
2022/10/30 01:07:11;;;;;;;8.95;3.75;;;17.70;99.90;;;;;;5035770;28;20035;-72
2022/10/30 01:09:38;;;;;;;11.60;4.20;;;17.60;99.90;;;;;;5035820;28;20071;-72
2022/10/30 01:12:05;;;;;;;9.10;4.28;;;17.60;99.90;;;;;;5035632;28;20477;-71
2022/10/30 01:14:37;;;;;;;8.93;4.22;;;17.60;99.90;;;;;;5035768;28;20095;-71
2022/10/30 01:17:27;;;;;;;10.00;4.40;;;17.60;99.90;;;;;;5035775;28;20035;-72
2022/10/30 01:20:17;;;;;;;11.75;4.20;;;17.60;99.90;;;;;;5035646;28;20040;-71
2022/10/30 01:22:49;;;;;;;8.98;4.00;;;17.60;99.90;;;;;;5035394;28;20374;-71
2022/10/30 01:25:37;;;;;;;10.50;4.90;;;17.60;99.90;;;;;;5035394;28;20083;-71
2022/10/30 01:28:41;;;;;;;10.60;4.03;;;17.50;99.90;;;;;;5035434;28;20112;-71
2022/10/30 01:31:21;;;;;;;9.93;3.90;;;17.50;99.90;;;;;;5035389;28;20076;-70
2022/10/30 01:33:57;;;;;;;13.77;5.10;;;17.50;99.90;;;;;;5065398;23;20399;-68
2022/10/30 01:36:42;;;;;;;12.13;4.63;;;17.50;99.90;;;;;;5071416;28;20051;-68
2022/10/30 01:39:38;;;;;;;10.77;4.60;;;17.40;99.90;;;;;;5071493;28;20075;-68
2022/10/30 01:42:42;;;;;;;11.35;4.82;;;17.40;99.90;;;;;;5060135;28;20044;-68
2022/10/30 01:45:15;;;;;;;10.90;4.30;;;17.40;99.90;;;;;;5032467;28;20123;-69
2022/10/30 01:48:05;;;;;;;11.00;4.43;;;17.30;99.90;;;;;;5092398;28;20051;-69
2022/10/30 01:50:52;;;;;;;13.10;4.55;;;17.30;99.90;;;;;;5059506;28;20063;-69
2022/10/30 01:53:45;;;;;;;14.02;4.45;;;17.30;99.90;;;;;;5074698;28;20028;-69
2022/10/30 01:56:28;;;;;;;11.18;4.72;;;17.20;99.90;;;;;;5074972;28;20035;-68
2022/10/30 01:59:48;;;;;;;9.52;4.60;;;17.20;99.90;;;;;;5074951;28;20639;-69
2022/10/30 02:02:14;;;;;;;10.05;4.35;;;17.20;99.90;;;;;;5070881;28;20060;-66
2022/10/30 02:04:40;;;;;;;11.68;4.70;;;17.20;99.90;;;;;;5074947;28;20058;-65
2022/10/30 02:07:06;;;;;;;11.82;4.35;;;17.20;99.90;;;;;;5074754;28;20027;-66
2022/10/30 02:09:39;;;;;;;14.43;4.57;;;17.10;99.90;;;;;;5074651;28;20123;-66
2022/10/30 02:12:07;;;;;;;9.55;4.35;;;17.10;99.90;;;;;;5074532;28;20040;-66
2022/10/30 02:14:37;;;;;;;13.13;4.97;;;17.00;99.90;;;;;;5074615;28;20550;-66
2022/10/30 02:17:08;;;;;;;11.32;4.68;;;17.00;99.90;;;;;;5074344;28;20036;-67
2022/10/30 02:19:34;;;;;;;12.68;4.45;;;17.00;99.90;;;;;;5074626;28;20046;-66
2022/10/30 02:22:02;;;;;;;9.48;4.07;;;17.00;99.90;;;;;;5074371;28;20515;-67
2022/10/30 02:24:29;;;;;;;10.75;4.40;;;17.00;99.90;;;;;;5074382;28;20115;-65
2022/10/30 02:26:54;;;;;;;10.82;4.40;;;17.00;99.90;;;;;;5092406;28;20024;-65
2022/10/30 02:29:20;;;;;;;11.88;4.50;;;17.00;99.90;;;;;;5074222;28;20031;-65
2022/10/30 02:31:47;;;;;;;7.97;4.13;;;17.00;99.90;;;;;;5074270;28;20074;-66
2022/10/30 02:34:15;;;;;;;10.82;4.40;;;17.00;99.90;;;;;;5074163;28;20723;-66
2022/10/30 02:36:42;;;;;;;14.13;4.75;;;17.00;99.90;;;;;;5074085;28;20032;-67
2022/10/30 02:39:08;;;;;;;12.77;4.80;;;17.00;99.90;;;;;;5073881;28;20035;-66
2022/10/30 02:41:35;;;;;;;12.38;4.57;;;17.00;99.90;;;;;;5073894;28;20041;-65
2022/10/30 02:44:01;;;;;;;10.02;4.43;;;16.90;99.90;;;;;;5092206;28;20024;-67
2022/10/30 02:46:28;;;;;;;13.15;5.00;;;16.90;99.90;;;;;;5073752;28;20047;-66
2022/10/30 02:48:54;;;;;;;8.23;4.25;;;16.80;99.90;;;;;;5073744;28;20507;-66
2022/10/30 02:51:20;;;;;;;13.65;4.88;;;16.80;99.90;;;;;;5073900;28;20032;-66
2022/10/30 02:53:47;;;;;;;10.45;4.60;;;16.70;99.90;;;;;;5073760;28;20055;-66
2022/10/30 02:56:14;;;;;;;12.35;4.20;;;16.70;99.90;;;;;;5073520;28;20492;-66
2022/10/30 02:58:41;;;;;;;8.73;4.40;;;16.60;99.90;;;;;;5073577;28;20028;-67
2022/10/30 03:01:10;;;;;;;10.45;4.50;;;16.60;99.90;;;;;;5073787;28;20032;-66
2022/10/30 03:03:37;;;;;;;9.68;4.80;;;16.60;99.90;;;;;;5073584;28;20024;-66
2022/10/30 03:06:05;;;;;;;10.63;4.93;;;16.60;99.90;;;;;;5091571;28;20028;-66
2022/10/30 03:08:32;;;;;;;8.23;4.75;;;16.60;99.90;;;;;;5073375;28;20032;-67
2022/10/30 03:11:02;;;;;;;13.13;5.22;;;16.60;99.90;;;;;;5073532;28;20035;-65
2022/10/30 03:13:31;;;;;;;11.20;4.97;;;16.50;99.90;;;;;;5073490;28;20519;-65
2022/10/30 03:16:02;;;;;;;10.43;4.45;;;16.50;99.90;;;;;;5091318;28;20036;-65
2022/10/30 03:18:31;;;;;;;11.85;5.28;;;16.40;99.90;;;;;;5073338;28;20036;-65
2022/10/30 03:21:04;;;;;;;15.60;5.50;;;16.40;99.90;;;;;;5091434;28;20074;-66
2022/10/30 03:23:30;;;;;;;10.55;4.55;;;16.30;99.90;;;;;;5072816;28;20476;-66
2022/10/30 03:25:57;;;;;;;13.98;5.15;;;16.30;99.90;;;;;;5073208;28;20111;-67
2022/10/30 03:28:27;;;;;;;13.52;5.00;;;16.30;99.90;;;;;;5091453;28;20024;-66
2022/10/30 03:31:00;;;;;;;;;;;16.30;99.90;;;;;;5057015;28;20036;-66
2022/10/30 03:33:26;;;;;;;11.52;4.90;;;16.30;99.90;;;;;;5091289;28;19912;-66
2022/10/30 03:35:52;;;;;;;9.32;4.95;;;16.30;99.90;;;;;;5072987;28;20052;-66
2022/10/30 03:38:17;;;;;;;11.63;4.93;;;16.30;99.90;;;;;;5091200;28;20081;-66
2022/10/30 03:40:43;;;;;;;12.52;5.53;;;16.20;99.90;;;;;;5072968;28;20028;-66
2022/10/30 03:43:10;;;;;;;11.20;4.72;;;16.20;99.90;;;;;;5072973;28;20472;-66
2022/10/30 03:45:36;;;;;;;9.23;4.82;;;16.20;99.90;;;;;;5091169;28;20056;-66
2022/10/30 03:48:05;;;;;;;13.73;5.18;;;16.10;99.90;;;;;;5073187;28;20035;-66
2022/10/30 03:50:32;;;;;;;12.90;5.85;;;16.10;99.90;;;;;;5073012;28;20500;-65
2022/10/30 03:52:59;;;;;;;13.48;5.00;;;16.00;99.90;;;;;;5072949;28;20404;-66
2022/10/30 03:55:25;;;;;;;13.68;5.35;;;16.00;99.90;;;;;;5073121;28;20046;-66
2022/10/30 03:57:51;;;;;;;12.98;5.65;;;15.90;99.90;;;;;;5072828;28;20484;-67
2022/10/30 04:00:19;;;;;;;14.48;5.47;;;15.90;99.90;;;;;;5072470;28;20059;-66
2022/10/30 04:02:54;;;;;;;14.57;5.30;;;15.80;99.90;;;;;;5072859;28;20028;-67
2022/10/30 04:05:23;;;;;;;12.27;5.55;;;15.80;99.90;;;;;;5063941;28;20373;-66
2022/10/30 04:07:59;;;;;;;13.45;5.10;;;15.80;99.90;;;;;;5052167;28;20140;-67
2022/10/30 04:10:28;;;;;;;10.77;5.38;;;15.70;99.90;;;;;;5070172;28;20143;-66
2022/10/30 04:13:03;;;;;;;14.73;5.45;;;15.60;99.90;;;;;;5071443;28;20044;-67
2022/10/30 04:15:29;;;;;;;10.93;5.43;;;15.60;99.90;;;;;;5071436;28;20031;-66
2022/10/30 04:17:55;;;;;;;11.48;5.00;;;15.60;99.90;;;;;;5089524;28;20020;-66
2022/10/30 04:20:23;;;;;;;13.18;5.20;;;15.50;99.90;;;;;;5071337;28;20028;-67
2022/10/30 04:22:54;;;;;;;11.83;4.83;;;15.60;99.90;;;;;;5089737;28;20027;-66
2022/10/30 04:25:21;;;;;;;15.57;5.28;;;15.40;99.90;;;;;;5071547;28;20132;-66
2022/10/30 04:27:51;;;;;;;11.38;5.38;;;15.50;99.90;;;;;;5071519;28;20396;-66
2022/10/30 04:30:20;;;;;;;16.42;6.00;;;15.50;99.90;;;;;;5069363;28;20024;-66
2022/10/30 04:32:47;;;;;;;;;;;15.50;99.90;;;;;;5070395;28;20119;-67
2022/10/30 04:35:13;;;;;;;13.63;5.90;;;15.40;99.90;;;;;;5051057;28;19952;-66
2022/10/30 04:37:40;;;;;;;15.02;5.32;;;15.40;99.90;;;;;;5073214;28;20387;-66
2022/10/30 04:40:06;;;;;;;10.65;5.38;;;15.30;99.90;;;;;;5074078;28;20020;-66
2022/10/30 04:42:46;;;;;;;17.02;5.75;;;15.30;99.90;;;;;;5074152;28;20477;-66
2022/10/30 04:45:12;;;;;;;11.40;5.60;;;15.30;99.90;;;;;;5092802;28;20095;-66
2022/10/30 04:47:38;;;;;;;14.18;5.40;;;15.20;99.90;;;;;;5074237;28;20123;-67
2022/10/30 04:50:04;;;;;;;10.57;5.32;;;15.20;99.90;;;;;;5092502;28;20077;-66
2022/10/30 04:52:31;;;;;;;13.10;4.95;;;15.20;99.90;;;;;;5074585;28;20032;-65
2022/10/30 04:54:57;;;;;;;10.70;4.93;;;15.10;99.90;;;;;;5075059;28;20028;-69
2022/10/30 04:57:23;;;;;;;15.65;5.60;;;15.00;99.90;;;;;;5074512;28;20024;-66
2022/10/30 04:59:49;;;;;;;13.25;5.28;;;15.00;99.90;;;;;;5074502;28;20032;-67
2022/10/30 05:02:18;;;;;;;15.95;5.38;;;15.20;99.90;;;;;;5074457;28;20089;-66
2022/10/30 05:04:44;;;;;;;13.40;5.20;;;15.20;99.90;;;;;;5093016;28;20357;-65
2022/10/30 05:07:12;;;;;;;9.40;5.07;;;15.20;99.90;;;;;;5074317;28;20066;-65
2022/10/30 05:09:38;;;;;;;11.75;5.03;;;15.10;99.90;;;;;;5074027;28;20035;-66
2022/10/30 05:12:05;;;;;;;14.95;5.25;;;15.10;99.90;;;;;;5074008;28;20081;-68
2022/10/30 05:14:37;;;;;;;13.20;5.50;;;15.10;99.90;;;;;;5074303;28;20488;-65
2022/10/30 05:17:03;;;;;;;10.30;5.03;;;15.10;99.90;;;;;;5092243;28;20053;-69
2022/10/30 05:19:29;;;;;;;17.20;5.88;;;15.10;99.90;;;;;;5092533;28;20032;-69
2022/10/30 05:21:56;;;;;;;14.93;5.50;;;15.10;99.90;;;;;;5091600;28;20379;-68
2022/10/30 05:24:22;;;;;;;15.85;6.18;;;15.10;99.90;;;;;;5074195;28;20061;-68
2022/10/30 05:26:49;;;;;;;15.10;5.57;;;15.00;99.90;;;;;;5071286;28;20024;-67
2022/10/30 05:29:15;;;;;;;12.50;5.20;;;15.10;99.90;;;;;;5073568;28;20170;-68
2022/10/30 05:31:41;;;;;;;15.68;5.45;;;15.10;99.90;;;;;;5073114;28;20506;-69
2022/10/30 05:34:08;;;;;;;15.38;6.07;;;15.20;99.90;;;;;;5092186;28;20036;-68
2022/10/30 05:36:37;;;;;;;;;;;15.40;99.90;;;;;;5072547;28;20111;-67
2022/10/30 05:39:03;;;;;;;10.98;5.25;;;15.30;99.90;;;;;;5073361;28;20068;-68
2022/10/30 05:41:34;;;;;;;16.98;5.68;;;15.30;99.90;;;;;;5073634;28;20532;-68
2022/10/30 05:44:00;;;;;;;14.90;5.22;;;15.30;99.90;;;;;;5073896;28;20028;-69
2022/10/30 05:46:26;;;;;;;11.93;5.40;;;15.30;99.90;;;;;;5071493;28;20029;-68
2022/10/30 05:48:54;;;;;;;14.27;5.85;;;15.20;99.90;;;;;;5073262;28;20111;-69
2022/10/30 05:51:21;;;;;;;12.05;5.45;;;15.20;99.90;;;;;;5056277;28;20028;-68
2022/10/30 05:53:52;;;;;;;17.30;6.60;;;15.10;99.90;;;;;;5073729;28;20507;-68
2022/10/30 05:56:21;;;;;;;16.17;5.45;;;15.10;99.90;;;;;;5071836;28;20024;-68
2022/10/30 05:58:50;;;;;;;12.90;5.30;;;15.00;99.90;;;;;;5073244;28;20035;-69
2022/10/30 06:01:16;;;;;;;;;;;15.00;99.90;;;;;;5073290;28;20392;-69
2022/10/30 06:03:47;;;;;;;14.70;5.68;;;15.00;99.90;;;;;;5073513;28;19908;-68
2022/10/30 06:06:13;;;;;;;11.65;5.85;;;15.10;99.90;;;;;;5089445;28;20042;-68
2022/10/30 06:08:39;;;;;;;14.23;5.70;;;15.10;99.90;;;;;;5091315;28;20120;-68
2022/10/30 06:11:27;;;;;;;12.43;5.72;;;15.10;99.90;;;;;;5073194;28;20035;-69
2022/10/30 06:13:57;;;;;;;13.70;5.50;;;15.00;99.90;;;;;;5072722;28;20028;-67
2022/10/30 06:16:34;;;;;;;12.75;5.50;;;15.10;99.90;;;;;;5069676;28;20055;-67
2022/10/30 06:19:17;;;;;;;12.00;5.93;;;15.20;99.90;;;;;;5071122;28;20062;-67
2022/10/30 06:21:43;;;;;;;12.70;5.88;;;15.30;99.90;;;;;;5055350;28;20060;-67
2022/10/30 06:24:28;;;;;;;10.95;5.38;;;15.30;99.90;;;;;;5090235;28;20031;-67
2022/10/30 06:27:08;;;;;;;10.38;5.32;;;15.30;99.90;;;;;;5072246;28;20115;-67
2022/10/30 06:29:34;;;;;;;10.65;5.40;;;15.30;99.90;;;;;;5071970;28;20485;-67
2022/10/30 06:32:00;;;;;;;15.25;5.68;;;15.30;99.90;;;;;;5090264;28;20124;-67
2022/10/30 06:34:26;;;;;;;15.25;5.45;;;15.30;99.90;;;;;;5072533;28;20393;-67
2022/10/30 06:36:53;;;;;;;18.20;6.68;;;15.20;99.90;;;;;;5070017;28;20032;-67
2022/10/30 06:39:18;;;;;;;11.85;5.32;;;15.10;99.90;;;;;;5090576;28;20100;-67
2022/10/30 06:42:05;;;;;;;15.02;6.07;;;15.10;99.90;;;;;;5087583;28;20040;-67
2022/10/30 06:44:48;;;;;;;15.85;6.05;;;15.10;99.90;;;;;;5070237;28;20063;-67
2022/10/30 06:47:14;;;;;;;22.13;6.05;;;15.10;99.90;;;;;;5071987;28;20056;-67
2022/10/30 06:49:41;;;;;;;13.55;5.60;;;15.10;99.90;;;;;;5072324;28;20032;-70
2022/10/30 06:52:07;;;;;;;16.15;5.85;;;15.00;99.90;;;;;;5072167;28;20085;-67
2022/10/30 06:54:33;;;;;;;12.15;5.70;;;14.90;99.90;;;;;;5072340;28;20346;-66
2022/10/30 06:56:59;;;;;;;14.32;6.22;;;14.90;99.90;;;;;;5088224;28;20032;-66
2022/10/30 06:59:25;;;;;;;15.70;6.10;;;14.90;99.90;;;;;;5090077;28;20028;-67
2022/10/30 07:02:21;;;;;;;11.68;5.80;;;14.90;99.90;;;;;;5072004;28;20396;-66
2022/10/30 07:04:51;;;;;;;14.02;5.47;;;14.90;99.90;;;;;;5070017;28;20061;-67
2022/10/30 07:07:17;;;;;;;12.75;5.40;;;14.90;99.90;;;;;;5089636;28;20028;-68
2022/10/30 07:09:45;;;;;;;13.02;5.78;;;14.90;99.90;;;;;;5072109;28;20070;-67
2022/10/30 07:12:12;;;;;;;14.90;5.75;;;14.90;99.90;;;;;;5071817;28;20028;-67
2022/10/30 07:14:38;;;;;;;13.43;6.70;;;15.00;99.90;;;;;;5089636;28;20096;-68
2022/10/30 07:17:17;;;;;;;15.20;5.78;;;15.10;99.90;;;;;;5071635;28;20032;-68
2022/10/30 07:19:50;;;;;;;15.52;6.18;;;15.20;99.90;;;;;;5072219;28;20028;-68
2022/10/30 07:22:16;;;;;;;12.95;5.82;;;15.20;99.90;;;;;;5071397;28;20085;-68
2022/10/30 07:24:46;;;;;;;15.02;6.25;;;15.20;99.90;;;;;;5069801;28;20024;-68
2022/10/30 07:27:43;;;;;;;12.88;6.32;;;15.10;99.90;;;;;;5065250;28;20104;-68
2022/10/30 07:30:38;;;;;;;12.32;5.35;;;15.20;99.90;;;;;;5006245;28;20056;-68
2022/10/30 07:33:24;;;;;;;11.50;5.57;;;15.20;99.90;;;;;;5098959;23;20526;-86
2022/10/30 07:36:06;;;;;;;13.68;5.85;;;15.30;99.90;;;;;;5045074;28;20031;-85
2022/10/30 07:38:49;;;;;;;12.00;5.53;;;15.40;99.90;;;;;;5065989;28;20048;-85
2022/10/30 07:41:27;;;;;;;10.13;5.30;;;15.50;99.90;;;;;;5065184;28;20411;-85
2022/10/30 07:44:19;;;;;;;14.00;5.57;;;15.50;99.90;;;;;;5031202;28;20025;-86
2022/10/30 07:46:47;;;;;;;15.30;5.38;;;15.60;99.90;;;;;;5040669;28;20025;-85
2022/10/30 07:49:36;;;;;;;11.48;5.93;;;15.50;99.90;;;;;;5047739;28;20048;-85
2022/10/30 07:52:05;;;;;;;10.00;5.00;;;15.50;99.90;;;;;;5046353;28;20037;-86
2022/10/30 07:54:31;;;;;;;12.85;5.70;;;15.60;99.90;;;;;;5031246;28;20474;-85
2022/10/30 07:57:06;;;;;;;13.48;5.72;;;15.60;99.90;;;;;;5047186;28;20025;-86
2022/10/30 07:59:52;;;;;;;15.32;6.07;;;15.60;99.90;;;;;;5057998;23;20059;-72
2022/10/30 08:02:38;;;;;;;13.20;6.03;;;15.70;99.90;;;;;;5081353;28;20110;-72
2022/10/30 08:05:25;;;;;;;9.65;5.55;;;15.70;99.90;;;;;;5036750;28;20027;-73
2022/10/30 08:08:07;;;;;;;13.10;5.18;;;15.80;99.90;;;;;;5049459;28;20021;-72
2022/10/30 08:10:34;;;;;;;14.15;5.72;;;15.70;99.90;;;;;;5053111;28;20067;-72
2022/10/30 08:13:01;;;;;;;11.52;5.43;;;15.80;99.90;;;;;;5054183;28;20021;-73
2022/10/30 08:15:27;;;;;;;15.07;5.05;;;15.90;99.90;;;;;;5056272;28;20124;-74
2022/10/30 08:17:53;;;;;;;12.23;5.90;;;15.90;99.90;;;;;;5055345;28;20103;-72
2022/10/30 08:20:23;;;;;;;13.90;5.70;;;15.90;99.90;;;;;;5054790;28;20552;-72
2022/10/30 08:22:51;;;;;;;10.63;4.70;;;16.00;99.90;;;;;;5055009;28;20120;-72
2022/10/30 08:25:24;;;;;;;11.27;4.47;;;16.00;99.90;;;;;;5049459;28;20050;-72
2022/10/30 08:27:53;;;;;;;13.45;5.10;;;16.20;99.90;;;;;;5054952;28;20111;-72
2022/10/30 08:30:22;;;;;;;12.02;5.13;;;16.20;99.90;;;;;;5054903;28;20090;-73
2022/10/30 08:33:02;;;;;;;11.45;5.07;;;16.30;99.90;;;;;;5040629;28;20040;-70
2022/10/30 08:35:49;;;;;;;10.45;5.70;;;16.30;99.90;;;;;;5073486;28;20096;-71
2022/10/30 08:38:15;;;;;;;10.95;4.93;;;16.40;99.90;;;;;;5073664;28;20024;-72
2022/10/30 08:40:42;;;;;;;11.85;4.82;;;16.40;99.90;;;;;;5054856;28;20043;-76
2022/10/30 08:43:08;;;;;;;10.18;5.05;;;16.50;99.90;;;;;;5074087;28;20020;-74
2022/10/30 08:45:35;;;;;;;11.90;4.82;;;16.50;99.90;;;;;;5074090;28;20024;-75
2022/10/30 08:48:09;;;;;;;9.93;5.45;;;16.50;99.90;;;;;;5055062;28;20029;-76
2022/10/30 08:50:37;;;;;;;10.57;4.72;;;16.60;99.90;;;;;;5054736;28;20489;-74
2022/10/30 08:53:06;;;;;;;8.45;4.45;;;16.60;99.90;;;;;;5073356;28;20033;-74
2022/10/30 08:55:36;;;;;;;10.35;4.70;;;16.70;99.90;;;;;;5054601;28;20032;-74
2022/10/30 08:58:04;;;;;;;10.82;4.18;;;16.70;99.90;;;;;;5054704;28;20119;-74
2022/10/30 09:00:37;;;;;;;9.20;4.47;;;16.80;99.90;;;;;;5053963;28;20397;-74
2022/10/30 09:03:09;;;;;;;;;;;16.80;99.90;;;;;;5054980;28;20029;-74
2022/10/30 09:05:38;;;;;;;8.98;4.20;;;16.90;99.90;;;;;;5052305;28;19916;-73
2022/10/30 09:08:27;;;;;;;6.95;3.90;;;16.90;99.90;;;;;;5072857;28;20082;-72
2022/10/30 09:11:13;;;;;;;9.15;4.22;;;17.00;99.90;;;;;;5071718;28;20040;-70
2022/10/30 09:13:40;;;;;;;9.25;4.32;;;17.00;99.90;;;;;;5054637;28;20411;-69
2022/10/30 09:16:06;;;;;;;9.13;4.45;;;17.00;99.90;;;;;;5071940;28;20103;-72
2022/10/30 09:18:35;;;;;;;10.70;4.40;;;17.10;99.90;;;;;;5054446;28;20155;-70
2022/10/30 09:21:01;;;;;;;10.73;4.18;;;17.10;99.90;;;;;;5053232;28;20550;-71
2022/10/30 09:23:27;;;;;;;11.30;4.72;;;17.20;99.90;;;;;;5054600;28;20031;-71
2022/10/30 09:26:13;;;;;;;10.77;4.65;;;17.20;99.90;;;;;;5071608;28;20040;-69
2022/10/30 09:28:49;;;;;;;8.85;4.25;;;17.30;99.90;;;;;;5054250;28;20377;-70
2022/10/30 09:31:33;;;;;;;9.00;4.43;;;17.30;99.90;;;;;;5071916;28;20203;-69
2022/10/30 09:34:02;;;;;;;14.57;4.72;;;17.30;99.90;;;;;;5038019;28;20419;-69
2022/10/30 09:36:45;;;;;;;9.55;4.30;;;17.30;99.90;;;;;;5053398;28;20067;-69
2022/10/30 09:39:11;;;;;;;8.85;4.45;;;17.40;99.90;;;;;;5037409;28;20029;-69
2022/10/30 09:42:02;;;;;;;9.27;4.22;;;17.40;99.90;;;;;;5053807;28;20082;-69
2022/10/30 09:44:40;;;;;;;10.48;4.57;;;17.40;99.90;;;;;;5054069;28;20047;-70
2022/10/30 09:47:34;;;;;;;9.95;4.60;;;17.50;99.90;;;;;;5053548;28;20025;-69
2022/10/30 09:50:45;;;;;;;11.90;4.72;;;17.50;99.90;;;;;;5071944;28;20032;-74
2022/10/30 09:53:35;;;;;;;8.65;3.88;;;17.60;99.90;;;;;;5001467;28;20035;-70
2022/10/30 09:56:15;;;;;;;8.85;4.10;;;17.60;99.90;;;;;;5053878;28;20052;-68
2022/10/30 09:58:57;;;;;;;11.23;4.30;;;17.70;99.90;;;;;;5053978;28;20035;-68
2022/10/30 10:01:42;;;;;;;10.70;4.32;;;17.70;99.90;;;;;;5037057;28;20036;-73
2022/10/30 10:04:23;;;;;;;10.82;4.68;;;17.90;99.90;;;;;;5072203;28;20036;-72
2022/10/30 10:07:13;;;;;;;10.27;5.13;;;17.90;99.90;;;;;;5071315;28;20127;-70
2022/10/30 10:09:55;;;;;;;14.38;6.00;;;17.90;99.90;;;;;;5053873;28;20029;-71
2022/10/30 10:12:48;;;;;;;13.20;6.00;;;17.80;99.90;;;;;;5053676;28;20035;-71
2022/10/30 10:15:23;;;;;;;12.48;6.35;;;17.60;99.90;;;;;;5071407;28;20032;-72
2022/10/30 10:17:50;;;;;;;13.18;6.90;;;17.50;99.90;;;;;;5071610;28;20052;-72
2022/10/30 10:20:31;;;;;;;20.25;6.60;;;17.40;99.90;;;;;;5071175;28;20052;-74
2022/10/30 10:23:01;;;;;;;12.02;6.72;;;17.20;99.90;;;;;;5053297;28;20054;-74
2022/10/30 10:25:29;;;;;;;15.35;7.00;;;17.10;99.90;;;;;;5053072;28;20056;-74
2022/10/30 10:28:13;;;;;;;14.20;7.05;;;17.10;99.90;;;;;;5067789;28;20017;-74
2022/10/30 10:30:51;;;;;;;11.88;6.50;;;17.00;99.90;;;;;;5070743;28;20028;-73
2022/10/30 10:33:54;;;;;;;10.93;6.53;;;16.90;99.90;;;;;;5070148;28;20028;-74
2022/10/30 10:36:51;;;;;;;12.52;6.75;;;16.90;99.90;;;;;;5070263;28;20103;-73
2022/10/30 10:39:39;;;;;;;11.47;7.03;;;16.80;99.90;;;;;;5069598;28;20063;-73
2022/10/30 10:42:32;;;;;;;13.52;7.38;;;16.80;99.90;;;;;;5070521;28;20365;-73
2022/10/30 10:45:31;;;;;;;14.70;6.55;;;16.70;99.90;;;;;;5070531;28;20500;-73
2022/10/30 10:48:24;;;;;;;11.85;6.13;;;16.70;99.90;;;;;;5070471;28;20454;-73
2022/10/30 10:51:20;;;;;;;14.52;6.28;;;16.70;99.90;;;;;;5070469;28;20029;-73
2022/10/30 10:53:50;;;;;;;11.60;6.40;;;16.70;99.90;;;;;;5070507;28;20059;-73
2022/10/30 10:56:17;;;;;;;12.68;5.43;;;16.70;99.90;;;;;;5070823;28;20183;-73
2022/10/30 10:59:26;;;;;;;11.05;5.70;;;16.80;99.90;;;;;;5071764;28;20023;-73
2022/10/30 11:02:04;;;;;;;12.27;6.05;;;16.70;99.90;;;;;;5044476;28;20194;-73
2022/10/30 11:04:42;;;;;;;13.77;6.13;;;16.70;99.90;;;;;;5071516;28;20021;-73
2022/10/30 11:07:33;;;;;;;10.73;6.25;;;16.70;99.90;;;;;;5053393;28;20253;-73
2022/10/30 11:09:59;;;;;;;11.25;6.40;;;16.70;99.90;;;;;;5071026;28;20086;-73
2022/10/30 11:12:29;;;;;;;13.10;6.30;;;16.70;99.90;;;;;;5071197;28;20108;-73
2022/10/30 11:15:00;;;;;;;11.07;6.57;;;16.70;99.90;;;;;;5071621;28;20032;-73
2022/10/30 11:17:44;;;;;;;13.05;6.13;;;16.70;99.90;;;;;;5071234;28;20086;-73
2022/10/30 11:20:48;;;;;;;13.27;5.80;;;16.70;99.90;;;;;;5071129;28;20082;-73
2022/10/30 11:23:34;;;;;;;14.98;6.32;;;16.80;99.90;;;;;;4970025;28;20084;-73
2022/10/30 11:26:02;;;;;;;13.23;6.50;;;16.90;99.90;;;;;;4970059;28;20121;-73
2022/10/30 11:28:35;;;;;;;10.07;6.38;;;16.90;99.90;;;;;;5006212;28;20033;-73
2022/10/30 11:31:18;;;;;;;9.75;4.63;;;16.90;99.90;;;;;;5051963;28;20051;-73
2022/10/30 11:33:44;;;;;;;15.88;5.93;;;16.90;99.90;;;;;;5071335;28;20025;-73
2022/10/30 11:36:13;;;;;;;14.55;6.15;;;16.90;99.90;;;;;;5070856;28;20059;-73
2022/10/30 11:38:39;;;;;;;15.70;6.03;;;17.00;99.90;;;;;;5070689;28;20039;-73
2022/10/30 11:41:05;;;;;;;14.43;6.60;;;17.00;99.90;;;;;;5070676;28;20036;-73
2022/10/30 11:43:31;;;;;;;13.68;6.32;;;17.10;99.90;;;;;;5070945;28;20043;-73
2022/10/30 11:45:57;;;;;;;10.57;6.15;;;17.00;99.90;;;;;;5068980;28;20032;-73
2022/10/30 11:48:29;;;;;;;16.30;7.43;;;17.00;99.90;;;;;;5070975;28;20115;-73
2022/10/30 11:50:59;;;;;;;11.60;6.43;;;17.00;99.90;;;;;;5071007;28;20464;-73
2022/10/30 11:53:34;;;;;;;12.43;5.85;;;17.00;99.90;;;;;;5070884;28;20033;-73
2022/10/30 11:56:02;;;;;;;12.05;6.82;;;17.00;99.90;;;;;;5070708;28;20024;-73
2022/10/30 11:58:29;;;;;;;11.43;6.22;;;17.00;99.90;;;;;;5070871;28;20037;-73
2022/10/30 12:01:26;;;;;;;11.45;6.18;;;17.00;99.90;;;;;;5052523;28;20029;-73
2022/10/30 12:03:54;;;;;;;12.57;6.43;;;17.00;99.90;;;;;;5070556;28;20031;-73
2022/10/30 12:06:26;;;;;;;12.68;6.15;;;16.90;99.90;;;;;;5070634;28;20021;-73
2022/10/30 12:09:02;;;;;;;17.15;6.93;;;16.90;99.90;;;;;;5070853;28;20052;-73
2022/10/30 12:11:36;;;;;;;13.52;6.68;;;17.00;99.90;;;;;;5070437;28;20040;-73
2022/10/30 12:14:03;;;;;;;11.73;6.57;;;17.00;99.90;;;;;;5070761;28;20032;-73
2022/10/30 12:16:29;;;;;;;17.08;7.03;;;17.00;99.90;;;;;;5070698;28;20377;-72
2022/10/30 12:19:00;;;;;;;14.57;7.38;;;17.00;99.90;;;;;;5070534;28;20082;-72
2022/10/30 12:21:30;;;;;;;15.60;7.70;;;17.00;99.90;;;;;;5070474;28;20032;-72
2022/10/30 12:24:05;;;;;;;17.10;7.25;;;17.00;99.90;;;;;;5070677;28;20296;-72
2022/10/30 12:26:33;;;;;;;16.00;7.85;;;17.00;99.90;;;;;;5070466;28;20025;-73
2022/10/30 12:29:03;;;;;;;15.87;7.10;;;17.00;99.90;;;;;;5070638;28;20037;-73
2022/10/30 12:31:37;;;;;;;11.35;6.22;;;17.00;99.90;;;;;;5070311;28;20089;-73
2022/10/30 12:34:21;;;;;;;14.40;6.80;;;17.00;99.90;;;;;;5070449;28;20032;-73
2022/10/30 12:36:59;;;;;;;16.00;8.70;;;17.10;99.90;;;;;;5052415;28;20041;-73
2022/10/30 12:39:57;;;;;;;15.30;8.60;;;17.10;99.90;;;;;;5070376;28;20111;-73
2022/10/30 12:42:24;;;;;;;20.35;9.23;;;17.10;99.90;;;;;;5000440;28;20123;-73
2022/10/30 12:45:13;;;;;;;16.30;8.30;;;17.10;99.90;;;;;;5070540;28;20400;-73
2022/10/30 12:48:00;;;;;;;15.57;7.20;;;17.10;99.90;;;;;;5035401;28;20064;-73
2022/10/30 12:50:31;;;;;;;15.40;6.78;;;17.10;99.90;;;;;;5070136;28;20036;-73
2022/10/30 12:53:04;;;;;;;13.05;6.78;;;17.10;99.90;;;;;;5070639;28;20078;-73
2022/10/30 12:55:38;;;;;;;13.35;7.32;;;17.10;99.90;;;;;;5070243;28;20047;-73
2022/10/30 12:58:20;;;;;;;11.98;6.88;;;17.10;99.90;;;;;;5073337;28;20032;-73
2022/10/30 13:01:12;;;;;;;17.02;8.05;;;17.10;99.90;;;;;;5073758;28;20033;-73
2022/10/30 13:04:10;;;;;;;14.27;7.20;;;17.20;99.90;;;;;;5073812;28;20024;-73
2022/10/30 13:06:51;;;;;;;11.98;6.63;;;17.10;99.90;;;;;;5069658;28;20037;-73
2022/10/30 13:09:40;;;;;;;14.18;6.38;;;17.10;99.90;;;;;;5073511;28;20063;-73
2022/10/30 13:12:13;;;;;;;13.05;6.03;;;17.10;99.90;;;;;;5072850;28;20496;-73